Terminal Aerodrome Forecast
Issued by NWS Sterling, VA

Current Version | Previous Version | Text Only | Print | Product List | Glossary On
Versions: 1 2 3 4 5 6 7 8 9 10 11 12 13 14
000
FTUS41 KLWX 230734 AAA
TAFMRB
TAF AMD
KMRB 230734Z 2308/2406 VRB03KT 6SM BR SCT250
      TEMPO 2308/2311 2SM BR=

USA.gov is the U.S. government's official web portal to all federal, state and local government web resources and services.